sensor_id;sensor_type;location;lat;lon;timestamp;pressure;altitude;pressure_sealevel;temperature;humidity
56142;BME280;42018;48.588;10.836;2023-05-12T00:01:46;96461.19;;;12.14;83.55
56142;BME280;42018;48.588;10.836;2023-05-12T00:04:32;96456.59;;;12.19;82.87
56142;BME280;42018;48.588;10.836;2023-05-12T00:07:17;96456.81;;;12.23;83.13
56142;BME280;42018;48.588;10.836;2023-05-12T00:10:03;96456.03;;;12.22;82.81
56142;BME280;42018;48.588;10.836;2023-05-12T00:12:48;96451.41;;;12.33;81.68
56142;BME280;42018;48.588;10.836;2023-05-12T00:15:35;96448.31;;;12.26;82.23
56142;BME280;42018;48.588;10.836;2023-05-12T00:18:21;96447.84;;;12.19;82.60
56142;BME280;42018;48.588;10.836;2023-05-12T00:21:06;96459.81;;;12.16;82.98
56142;BME280;42018;48.588;10.836;2023-05-12T00:23:52;96448.59;;;12.25;82.28
56142;BME280;42018;48.588;10.836;2023-05-12T00:26:38;96448.31;;;12.26;82.16
56142;BME280;42018;48.588;10.836;2023-05-12T00:29:23;96442.72;;;12.28;82.21
56142;BME280;42018;48.588;10.836;2023-05-12T00:32:08;96439.22;;;12.32;81.17
56142;BME280;42018;48.588;10.836;2023-05-12T00:34:54;96438.41;;;12.32;81.43
56142;BME280;42018;48.588;10.836;2023-05-12T00:37:39;96434.47;;;12.29;81.54
56142;BME280;42018;48.588;10.836;2023-05-12T00:40:24;96434.13;;;12.36;80.10
56142;BME280;42018;48.588;10.836;2023-05-12T00:43:10;96440.66;;;12.19;81.36
56142;BME280;42018;48.588;10.836;2023-05-12T00:45:55;96442.03;;;12.17;81.23
56142;BME280;42018;48.588;10.836;2023-05-12T00:48:41;96448.94;;;12.18;81.77
56142;BME280;42018;48.588;10.836;2023-05-12T00:51:26;96435.97;;;12.11;81.72
56142;BME280;42018;48.588;10.836;2023-05-12T00:54:12;96436.84;;;12.07;82.52
56142;BME280;42018;48.588;10.836;2023-05-12T00:56:57;96433.88;;;12.08;82.59
56142;BME280;42018;48.588;10.836;2023-05-12T00:59:43;96429.34;;;12.09;82.88
56142;BME280;42018;48.588;10.836;2023-05-12T01:02:28;96429.34;;;12.09;82.97
56142;BME280;42018;48.588;10.836;2023-05-12T01:05:14;96426.44;;;12.10;82.69
56142;BME280;42018;48.588;10.836;2023-05-12T01:07:59;96430.34;;;12.18;82.16
56142;BME280;42018;48.588;10.836;2023-05-12T01:10:45;96424.81;;;12.14;82.38
56142;BME280;42018;48.588;10.836;2023-05-12T01:13:31;96422.06;;;12.19;81.70
56142;BME280;42018;48.588;10.836;2023-05-12T01:16:22;96429.59;;;12.12;82.11
56142;BME280;42018;48.588;10.836;2023-05-12T01:19:14;96425.06;;;12.13;82.22
56142;BME280;42018;48.588;10.836;2023-05-12T01:22:03;96424.50;;;12.16;82.08
56142;BME280;42018;48.588;10.836;2023-05-12T01:24:51;96427.13;;;12.21;81.96
56142;BME280;42018;48.588;10.836;2023-05-12T01:27:39;96428.75;;;12.17;82.00
56142;BME280;42018;48.588;10.836;2023-05-12T01:30:24;96419.72;;;12.18;82.25
56142;BME280;42018;48.588;10.836;2023-05-12T01:33:10;96419.75;;;12.13;82.79
56142;BME280;42018;48.588;10.836;2023-05-12T01:35:56;96413.09;;;12.15;82.55
56142;BME280;42018;48.588;10.836;2023-05-12T01:38:41;96418.41;;;12.15;82.56
56142;BME280;42018;48.588;10.836;2023-05-12T01:41:27;96426.16;;;12.12;82.73
56142;BME280;42018;48.588;10.836;2023-05-12T01:44:12;96425.88;;;12.13;82.80
56142;BME280;42018;48.588;10.836;2023-05-12T01:46:58;96419.75;;;12.13;83.11
56142;BME280;42018;48.588;10.836;2023-05-12T01:49:44;96428.69;;;12.22;81.71
56142;BME280;42018;48.588;10.836;2023-05-12T01:52:29;96433.00;;;12.18;81.66
56142;BME280;42018;48.588;10.836;2023-05-12T01:55:15;96432.69;;;12.19;81.39
56142;BME280;42018;48.588;10.836;2023-05-12T01:58:00;96432.09;;;12.28;80.84
56142;BME280;42018;48.588;10.836;2023-05-12T02:00:45;96436.69;;;12.41;80.11
56142;BME280;42018;48.588;10.836;2023-05-12T02:03:31;96439.00;;;12.48;79.57
56142;BME280;42018;48.588;10.836;2023-05-12T02:06:16;96440.09;;;12.46;79.54
56142;BME280;42018;48.588;10.836;2023-05-12T02:09:02;96437.88;;;12.54;79.18
56142;BME280;42018;48.588;10.836;2023-05-12T02:11:47;96438.16;;;12.52;79.74
56142;BME280;42018;48.588;10.836;2023-05-12T02:14:33;96443.53;;;12.47;79.79
56142;BME280;42018;48.588;10.836;2023-05-12T02:17:18;96436.91;;;12.44;80.32
56142;BME280;42018;48.588;10.836;2023-05-12T02:20:05;96430.56;;;12.45;80.37
56142;BME280;42018;48.588;10.836;2023-05-12T02:22:51;96437.50;;;12.41;80.35
56142;BME280;42018;48.588;10.836;2023-05-12T02:25:36;96428.81;;;12.36;80.59
56142;BME280;42018;48.588;10.836;2023-05-12T02:28:22;96430.72;;;12.30;80.81
56142;BME280;42018;48.588;10.836;2023-05-12T02:31:07;96430.22;;;12.28;81.49
56142;BME280;42018;48.588;10.836;2023-05-12T02:33:53;96429.66;;;12.31;81.20
56142;BME280;42018;48.588;10.836;2023-05-12T02:36:38;96430.44;;;12.32;81.14
56142;BME280;42018;48.588;10.836;2023-05-12T02:39:23;96423.59;;;12.26;81.69
56142;BME280;42018;48.588;10.836;2023-05-12T02:42:09;96425.47;;;12.25;81.86
56142;BME280;42018;48.588;10.836;2023-05-12T02:44:54;96422.75;;;12.30;81.40
56142;BME280;42018;48.588;10.836;2023-05-12T02:47:40;96426.38;;;12.39;80.58
56142;BME280;42018;48.588;10.836;2023-05-12T02:50:25;96425.94;;;12.32;81.23
56142;BME280;42018;48.588;10.836;2023-05-12T02:53:11;96425.34;;;12.35;80.86
56142;BME280;42018;48.588;10.836;2023-05-12T02:55:56;96432.31;;;12.31;81.19
56142;BME280;42018;48.588;10.836;2023-05-12T02:58:42;96429.75;;;12.45;80.00
56142;BME280;42018;48.588;10.836;2023-05-12T03:01:27;96420.72;;;12.46;79.83
56142;BME280;42018;48.588;10.836;2023-05-12T03:04:12;96426.09;;;12.17;80.87
56142;BME280;42018;48.588;10.836;2023-05-12T03:06:58;96419.72;;;12.18;81.43
56142;BME280;42018;48.588;10.836;2023-05-12T03:09:43;96417.63;;;12.15;81.58
56142;BME280;42018;48.588;10.836;2023-05-12T03:12:28;96418.38;;;12.20;81.57
56142;BME280;42018;48.588;10.836;2023-05-12T03:15:14;96416.94;;;12.28;81.34
56142;BME280;42018;48.588;10.836;2023-05-12T03:17:59;96420.88;;;12.31;81.54
56142;BME280;42018;48.588;10.836;2023-05-12T03:20:45;96423.97;;;12.38;81.02
56142;BME280;42018;48.588;10.836;2023-05-12T03:23:31;96422.13;;;12.38;81.06
56142;BME280;42018;48.588;10.836;2023-05-12T03:26:17;96420.03;;;12.35;81.46
56142;BME280;42018;48.588;10.836;2023-05-12T03:29:02;96419.47;;;12.38;81.11
56142;BME280;42018;48.588;10.836;2023-05-12T03:31:50;96425.28;;;12.40;80.99
56142;BME280;42018;48.588;10.836;2023-05-12T03:34:36;96423.63;;;12.44;80.50
56142;BME280;42018;48.588;10.836;2023-05-12T03:37:21;96429.03;;;12.39;81.06
56142;BME280;42018;48.588;10.836;2023-05-12T03:40:07;96419.25;;;12.35;80.88
56142;BME280;42018;48.588;10.836;2023-05-12T03:42:52;96417.50;;;12.25;81.36
56142;BME280;42018;48.588;10.836;2023-05-12T03:45:38;96417.59;;;11.91;83.42
56142;BME280;42018;48.588;10.836;2023-05-12T03:48:23;96426.88;;;11.59;85.75
56142;BME280;42018;48.588;10.836;2023-05-12T03:51:09;96419.28;;;11.82;84.32
56142;BME280;42018;48.588;10.836;2023-05-12T03:53:54;96421.84;;;11.92;83.76
56142;BME280;42018;48.588;10.836;2023-05-12T03:56:39;96411.56;;;11.80;83.85
56142;BME280;42018;48.588;10.836;2023-05-12T03:59:25;96413.44;;;11.80;84.54
56142;BME280;42018;48.588;10.836;2023-05-12T04:02:10;96418.06;;;11.98;83.12
56142;BME280;42018;48.588;10.836;2023-05-12T04:04:57;96421.16;;;12.05;82.65
56142;BME280;42018;48.588;10.836;2023-05-12T04:07:42;96424.91;;;12.04;82.93
56142;BME280;42018;48.588;10.836;2023-05-12T04:10:27;96417.72;;;12.05;83.16
56142;BME280;42018;48.588;10.836;2023-05-12T04:13:13;96424.56;;;12.11;82.76
56142;BME280;42018;48.588;10.836;2023-05-12T04:15:58;96422.47;;;12.08;82.80
56142;BME280;42018;48.588;10.836;2023-05-12T04:18:44;96427.25;;;12.06;82.79
56142;BME280;42018;48.588;10.836;2023-05-12T04:21:30;96425.56;;;11.91;84.17
56142;BME280;42018;48.588;10.836;2023-05-12T04:24:15;96422.97;;;11.86;85.26
56142;BME280;42018;48.588;10.836;2023-05-12T04:27:00;96431.53;;;11.78;86.61
56142;BME280;42018;48.588;10.836;2023-05-12T04:29:46;96431.22;;;11.79;86.50
56142;BME280;42018;48.588;10.836;2023-05-12T04:32:31;96429.88;;;11.82;86.36
56142;BME280;42018;48.588;10.836;2023-05-12T04:35:16;96436.72;;;11.93;85.57
56142;BME280;42018;48.588;10.836;2023-05-12T04:38:02;96440.66;;;11.95;85.14
56142;BME280;42018;48.588;10.836;2023-05-12T04:40:47;96442.63;;;12.09;84.10
56142;BME280;42018;48.588;10.836;2023-05-12T04:43:33;96439.03;;;12.23;83.39
56142;BME280;42018;48.588;10.836;2023-05-12T04:46:18;96432.44;;;12.21;83.51
56142;BME280;42018;48.588;10.836;2023-05-12T04:49:03;96442.81;;;12.17;83.54
56142;BME280;42018;48.588;10.836;2023-05-12T04:51:49;96444.69;;;12.17;83.33
56142;BME280;42018;48.588;10.836;2023-05-12T04:54:34;96447.59;;;12.20;83.17
56142;BME280;42018;48.588;10.836;2023-05-12T04:57:19;96453.13;;;12.24;83.30
56142;BME280;42018;48.588;10.836;2023-05-12T05:00:07;96452.88;;;12.20;83.81
56142;BME280;42018;48.588;10.836;2023-05-12T05:02:53;96453.78;;;12.11;84.92
56142;BME280;42018;48.588;10.836;2023-05-12T05:05:38;96456.94;;;12.13;84.08
56142;BME280;42018;48.588;10.836;2023-05-12T05:08:23;96462.88;;;12.05;84.63
56142;BME280;42018;48.588;10.836;2023-05-12T05:11:09;96457.38;;;12.20;83.26
56142;BME280;42018;48.588;10.836;2023-05-12T05:13:54;96451.47;;;12.04;83.68
56142;BME280;42018;48.588;10.836;2023-05-12T05:16:39;96455.13;;;12.08;84.22
56142;BME280;42018;48.588;10.836;2023-05-12T05:19:25;96460.66;;;12.12;83.69
56142;BME280;42018;48.588;10.836;2023-05-12T05:22:11;96454.81;;;12.15;83.76
56142;BME280;42018;48.588;10.836;2023-05-12T05:24:56;96460.50;;;12.03;84.32
56142;BME280;42018;48.588;10.836;2023-05-12T05:27:41;96456.88;;;11.94;85.69
56142;BME280;42018;48.588;10.836;2023-05-12T05:30:27;96463.16;;;12.03;85.63
56142;BME280;42018;48.588;10.836;2023-05-12T05:33:12;96466.59;;;12.04;85.59
56142;BME280;42018;48.588;10.836;2023-05-12T05:35:58;96470.94;;;11.94;85.76
56142;BME280;42018;48.588;10.836;2023-05-12T05:38:44;96455.00;;;11.94;86.28
56142;BME280;42018;48.588;10.836;2023-05-12T05:41:29;96466.53;;;12.09;85.15
56142;BME280;42018;48.588;10.836;2023-05-12T05:44:14;96466.44;;;12.19;84.81
56142;BME280;42018;48.588;10.836;2023-05-12T05:47:00;96459.56;;;12.18;83.74
56142;BME280;42018;48.588;10.836;2023-05-12T05:49:47;96471.19;;;12.22;83.26
56142;BME280;42018;48.588;10.836;2023-05-12T05:52:32;96473.06;;;12.21;83.04
56142;BME280;42018;48.588;10.836;2023-05-12T05:55:17;96470.84;;;12.29;82.58
56142;BME280;42018;48.588;10.836;2023-05-12T05:58:03;96480.00;;;12.41;82.11
56142;BME280;42018;48.588;10.836;2023-05-12T06:00:48;96478.09;;;12.47;81.12
56142;BME280;42018;48.588;10.836;2023-05-12T06:03:33;96476.75;;;12.50;81.24
56142;BME280;42018;48.588;10.836;2023-05-12T06:06:19;96475.88;;;12.54;80.56
56142;BME280;42018;48.588;10.836;2023-05-12T06:09:04;96483.06;;;12.54;79.86
56142;BME280;42018;48.588;10.836;2023-05-12T06:11:52;96480.06;;;12.60;79.65
56142;BME280;42018;48.588;10.836;2023-05-12T06:14:38;96476.50;;;12.70;78.85
56142;BME280;42018;48.588;10.836;2023-05-12T06:17:23;96481.88;;;12.65;79.40
56142;BME280;42018;48.588;10.836;2023-05-12T06:20:09;96485.09;;;12.62;80.35
56142;BME280;42018;48.588;10.836;2023-05-12T06:22:54;96486.69;;;12.63;80.74
56142;BME280;42018;48.588;10.836;2023-05-12T06:25:40;96493.34;;;12.60;80.89
56142;BME280;42018;48.588;10.836;2023-05-12T06:28:25;96494.59;;;12.44;81.90
56142;BME280;42018;48.588;10.836;2023-05-12T06:31:11;96497.75;;;12.22;82.36
56142;BME280;42018;48.588;10.836;2023-05-12T06:33:59;96497.56;;;11.84;83.95
56142;BME280;42018;48.588;10.836;2023-05-12T06:36:48;96495.63;;;11.61;86.72
56142;BME280;42018;48.588;10.836;2023-05-12T06:39:42;96490.56;;;11.59;85.60
56142;BME280;42018;48.588;10.836;2023-05-12T06:42:28;96493.44;;;11.68;86.40
56142;BME280;42018;48.588;10.836;2023-05-12T06:45:14;96497.94;;;12.02;84.96
56142;BME280;42018;48.588;10.836;2023-05-12T06:47:59;96495.19;;;12.12;84.62
56142;BME280;42018;48.588;10.836;2023-05-12T06:50:45;96492.22;;;12.18;83.77
56142;BME280;42018;48.588;10.836;2023-05-12T06:53:41;96495.97;;;12.12;83.14
56142;BME280;42018;48.588;10.836;2023-05-12T06:56:27;96499.13;;;11.90;85.33
56142;BME280;42018;48.588;10.836;2023-05-12T06:59:13;96495.25;;;12.07;84.96
56142;BME280;42018;48.588;10.836;2023-05-12T07:02:01;96500.25;;;12.37;83.61
56142;BME280;42018;48.588;10.836;2023-05-12T07:04:46;96499.19;;;12.38;83.37
56142;BME280;42018;48.588;10.836;2023-05-12T07:07:32;96493.34;;;12.60;82.13
56142;BME280;42018;48.588;10.836;2023-05-12T07:10:17;96497.16;;;12.73;82.38
56142;BME280;42018;48.588;10.836;2023-05-12T07:13:05;96498.56;;;12.89;81.70
56142;BME280;42018;48.588;10.836;2023-05-12T07:21:09;96494.56;;;13.11;80.23
56142;BME280;42018;48.588;10.836;2023-05-12T07:24:28;96500.00;;;13.25;80.65
56142;BME280;42018;48.588;10.836;2023-05-12T07:27:35;96499.34;;;13.33;79.48
56142;BME280;42018;48.588;10.836;2023-05-12T07:34:01;96499.66;;;13.07;79.37
56142;BME280;42018;48.588;10.836;2023-05-12T07:41:19;96494.44;;;13.02;79.49
56142;BME280;42018;48.588;10.836;2023-05-12T09:32:47;96528.91;;;13.31;80.84
56142;BME280;42018;48.588;10.836;2023-05-12T09:46:23;96531.47;;;13.74;79.45
56142;BME280;42018;48.588;10.836;2023-05-12T09:49:11;96535.94;;;13.60;79.32
56142;BME280;42018;48.588;10.836;2023-05-12T09:52:02;96539.75;;;13.54;80.10
56142;BME280;42018;48.588;10.836;2023-05-12T09:57:25;96530.63;;;13.60;79.03
56142;BME280;42018;48.588;10.836;2023-05-12T10:05:49;96529.25;;;13.62;79.44
56142;BME280;42018;48.588;10.836;2023-05-12T10:35:30;96533.56;;;13.77;77.58
56142;BME280;42018;48.588;10.836;2023-05-12T10:41:06;96533.84;;;13.76;78.30
56142;BME280;42018;48.588;10.836;2023-05-12T11:12:20;96547.28;;;13.84;78.07
56142;BME280;42018;48.588;10.836;2023-05-12T11:51:31;96564.44;;;14.11;77.63
56142;BME280;42018;48.588;10.836;2023-05-12T11:54:16;96566.94;;;14.21;78.17
56142;BME280;42018;48.588;10.836;2023-05-12T11:57:02;96568.34;;;14.32;76.72
56142;BME280;42018;48.588;10.836;2023-05-12T11:59:55;96568.25;;;14.37;77.06
56142;BME280;42018;48.588;10.836;2023-05-12T12:02:42;96571.88;;;14.28;76.31
56142;BME280;42018;48.588;10.836;2023-05-12T12:05:27;96570.09;;;14.23;77.42
56142;BME280;42018;48.588;10.836;2023-05-12T12:08:16;96582.81;;;14.26;78.17
56142;BME280;42018;48.588;10.836;2023-05-12T12:11:01;96574.13;;;13.88;75.99
56142;BME280;42018;48.588;10.836;2023-05-12T12:13:49;96579.81;;;13.81;76.35
56142;BME280;42018;48.588;10.836;2023-05-12T12:16:41;96570.47;;;13.65;75.84
56142;BME280;42018;48.588;10.836;2023-05-12T12:19:27;96579.41;;;13.74;77.30
56142;BME280;42018;48.588;10.836;2023-05-12T12:22:12;96587.94;;;13.90;76.95
56142;BME280;42018;48.588;10.836;2023-05-12T12:24:57;96579.81;;;13.81;77.94
56142;BME280;42018;48.588;10.836;2023-05-12T12:27:43;96578.69;;;13.87;77.60
56142;BME280;42018;48.588;10.836;2023-05-12T12:38:01;96580.91;;;13.61;77.80
56142;BME280;42018;48.588;10.836;2023-05-12T12:40:47;96581.19;;;13.60;77.37
56142;BME280;42018;48.588;10.836;2023-05-12T12:43:32;96580.91;;;13.61;77.73
56142;BME280;42018;48.588;10.836;2023-05-12T12:46:18;96591.19;;;13.68;77.55
56142;BME280;42018;48.588;10.836;2023-05-12T12:49:04;96585.38;;;13.66;77.83
56142;BME280;42018;48.588;10.836;2023-05-12T12:51:50;96587.88;;;13.38;78.26
56142;BME280;42018;48.588;10.836;2023-05-12T12:54:42;96589.13;;;13.22;78.60
56142;BME280;42018;48.588;10.836;2023-05-12T12:57:40;96587.94;;;13.33;78.46
56142;BME280;42018;48.588;10.836;2023-05-12T13:00:28;96589.97;;;13.41;78.14
56142;BME280;42018;48.588;10.836;2023-05-12T13:03:14;96582.84;;;13.37;78.04
56142;BME280;42018;48.588;10.836;2023-05-12T14:07:54;96586.75;;;14.15;77.01
56142;BME280;42018;48.588;10.836;2023-05-12T14:10:55;96583.03;;;14.30;76.08
56142;BME280;42018;48.588;10.836;2023-05-12T14:13:49;96583.19;;;14.06;74.85
56142;BME280;42018;48.588;10.836;2023-05-12T14:16:35;96584.22;;;14.05;76.15
56142;BME280;42018;48.588;10.836;2023-05-12T14:19:46;96577.63;;;14.02;75.78
56142;BME280;42018;48.588;10.836;2023-05-12T14:22:32;96585.47;;;14.12;75.74
56142;BME280;42018;48.588;10.836;2023-05-12T14:29:04;96588.09;;;13.80;75.85
56142;BME280;42018;48.588;10.836;2023-05-12T14:31:49;96589.97;;;13.79;76.13
56142;BME280;42018;48.588;10.836;2023-05-12T14:34:35;96587.94;;;13.90;76.66
56142;BME280;42018;48.588;10.836;2023-05-12T14:37:20;96592.84;;;13.83;77.68
56142;BME280;42018;48.588;10.836;2023-05-12T14:40:26;96594.44;;;13.65;77.87
56142;BME280;42018;48.588;10.836;2023-05-12T14:43:12;96599.03;;;13.78;77.67
56142;BME280;42018;48.588;10.836;2023-05-12T14:46:09;96594.81;;;13.77;78.53
56142;BME280;42018;48.588;10.836;2023-05-12T14:48:55;96594.06;;;13.90;77.64
56142;BME280;42018;48.588;10.836;2023-05-12T15:14:07;96601.41;;;14.31;76.35
56142;BME280;42018;48.588;10.836;2023-05-12T15:16:52;96603.75;;;14.33;76.70
56142;BME280;42018;48.588;10.836;2023-05-12T15:19:41;96605.66;;;14.32;76.59
56142;BME280;42018;48.588;10.836;2023-05-12T15:22:34;96605.38;;;14.15;76.84
56142;BME280;42018;48.588;10.836;2023-05-12T15:27:52;96597.81;;;13.89;76.80
56142;BME280;42018;48.588;10.836;2023-05-12T15:30:38;96602.75;;;13.96;76.93
56142;BME280;42018;48.588;10.836;2023-05-12T15:33:24;96613.00;;;13.89;78.18
56142;BME280;42018;48.588;10.836;2023-05-12T15:36:09;96606.03;;;13.74;77.07
56142;BME280;42018;48.588;10.836;2023-05-12T15:38:55;96621.13;;;13.79;78.11
56142;BME280;42018;48.588;10.836;2023-05-12T15:41:41;96621.19;;;13.55;79.11
56142;BME280;42018;48.588;10.836;2023-05-12T15:44:27;96613.97;;;13.36;79.42
56142;BME280;42018;48.588;10.836;2023-05-12T15:47:12;96623.09;;;13.06;81.01
56142;BME280;42018;48.588;10.836;2023-05-12T15:50:02;96626.09;;;13.00;81.70
56142;BME280;42018;48.588;10.836;2023-05-12T15:52:48;96624.47;;;13.04;81.69
56142;BME280;42018;48.588;10.836;2023-05-12T15:55:34;96624.84;;;12.92;82.22
56142;BME280;42018;48.588;10.836;2023-05-12T15:58:19;96626.28;;;12.84;83.09
56142;BME280;42018;48.588;10.836;2023-05-12T16:01:05;96623.97;;;12.73;83.25
56142;BME280;42018;48.588;10.836;2023-05-12T16:03:51;96625.19;;;12.85;83.24
56142;BME280;42018;48.588;10.836;2023-05-12T16:07:02;96622.25;;;12.63;83.33
56142;BME280;42018;48.588;10.836;2023-05-12T16:10:04;96622.50;;;12.61;84.10
56142;BME280;42018;48.588;10.836;2023-05-12T16:13:17;96633.72;;;12.82;83.96
56142;BME280;42018;48.588;10.836;2023-05-12T16:16:08;96623.56;;;12.89;83.71
56142;BME280;42018;48.588;10.836;2023-05-12T18:30:58;96660.09;;;12.50;78.39
56142;BME280;42018;48.588;10.836;2023-05-12T18:34:01;96665.50;;;12.34;78.54
56142;BME280;42018;48.588;10.836;2023-05-12T18:52:06;96675.31;;;12.39;78.65
56142;BME280;42018;48.588;10.836;2023-05-12T18:54:55;96684.31;;;12.43;78.43
56142;BME280;42018;48.588;10.836;2023-05-12T18:58:05;96695.25;;;12.36;77.57
56142;BME280;42018;48.588;10.836;2023-05-12T19:00:53;96697.31;;;12.44;78.08
56142;BME280;42018;48.588;10.836;2023-05-12T19:03:42;96697.28;;;12.50;78.28
56142;BME280;42018;48.588;10.836;2023-05-12T19:06:30;96692.16;;;12.58;77.75
56142;BME280;42018;48.588;10.836;2023-05-12T19:13:02;96698.84;;;12.56;78.13
56142;BME280;42018;48.588;10.836;2023-05-12T19:16:08;96700.38;;;12.62;78.10
56142;BME280;42018;48.588;10.836;2023-05-12T19:18:53;96697.16;;;12.65;77.82
56142;BME280;42018;48.588;10.836;2023-05-12T19:21:47;96704.72;;;12.53;77.71
56142;BME280;42018;48.588;10.836;2023-05-12T19:24:33;96700.53;;;12.41;78.19
56142;BME280;42018;48.588;10.836;2023-05-12T19:27:18;96708.19;;;12.48;78.14
56142;BME280;42018;48.588;10.836;2023-05-12T19:30:05;96705.81;;;12.46;78.78
56142;BME280;42018;48.588;10.836;2023-05-12T19:32:51;96704.16;;;12.56;77.95
56142;BME280;42018;48.588;10.836;2023-05-12T19:35:40;96716.38;;;12.57;77.99
56142;BME280;42018;48.588;10.836;2023-05-12T19:38:26;96712.94;;;12.56;77.94
56142;BME280;42018;48.588;10.836;2023-05-12T19:41:11;96709.94;;;12.63;77.30
56142;BME280;42018;48.588;10.836;2023-05-12T19:43:57;96716.63;;;12.55;77.39
56142;BME280;42018;48.588;10.836;2023-05-12T19:46:44;96712.88;;;12.61;77.25
56142;BME280;42018;48.588;10.836;2023-05-12T19:49:39;96720.97;;;12.46;77.54
56142;BME280;42018;48.588;10.836;2023-05-12T19:52:24;96714.56;;;12.47;77.27
56142;BME280;42018;48.588;10.836;2023-05-12T19:55:10;96715.91;;;12.44;78.27
56142;BME280;42018;48.588;10.836;2023-05-12T19:57:56;96714.88;;;12.45;78.25
56142;BME280;42018;48.588;10.836;2023-05-12T20:01:04;96718.56;;;12.44;78.01
56142;BME280;42018;48.588;10.836;2023-05-12T23:14:42;96710.19;;;11.83;75.98
56142;BME280;42018;48.588;10.836;2023-05-12T23:17:29;96716.31;;;11.78;76.87
56142;BME280;42018;48.588;10.836;2023-05-12T23:22:56;96710.16;;;11.88;76.35
56142;BME280;42018;48.588;10.836;2023-05-12T23:25:43;96715.03;;;11.70;76.97
56142;BME280;42018;48.588;10.836;2023-05-12T23:28:55;96707.56;;;11.72;77.59
56142;BME280;42018;48.588;10.836;2023-05-12T23:31:52;96708.38;;;11.73;77.37
56142;BME280;42018;48.588;10.836;2023-05-12T23:34:44;96704.41;;;11.70;77.72
56142;BME280;42018;48.588;10.836;2023-05-12T23:37:35;96702.81;;;11.69;77.98
56142;BME280;42018;48.588;10.836;2023-05-12T23:40:27;96709.44;;;11.72;78.02
